Hauptseite
METAR-TAF:

METAR-TAF

Flughäfen :

Flughafen Lusaka

Lusaka, Sambia

Breite: 15-19-51S, Länge: 028-27-09E, Höhe: 1152 m

Beobachtung

Neuester Wetterbericht von vor 38 Minuten, um 20:00 UTC
Wind 2 kt aus Süd
Temperatur 19°C
Luftfeuchtigkeit 78%
Luftdruck 1020 hPa
Sichtweite 10 km oder mehr
keine Wolken unter 1500 m und keine Kumulonimbus oder Gewitterwolken

METAR: FLKK 252000Z 19002KT CAVOK 19/15 Q1020

Zeit: 22:38 (20:38 UTC)


TAF: fehlend

Wetterbeobachtungen und Prognosen von mehr als 4000 Flughäfen (METAR und TAF Bericht).

Die verfügbaren Stationen werden durch gelbe und rote Markierungen auf der Karte dargestellt.

Führen Sie die Maus auf sie, um den Namen der Station zu sehen.

Darauf klicken, um die Beobachtung von Wetterbeobachtungen und Prognosen zu sehen.

Um die Karte zu ändern : klicken Sie auf den grünen Tasten mit einem schwarzen Kreuz Zum Vergrößern, auf den grünen Button mit einem Gedankenstrich zu verkleinern, oder auf die grünen Pfeile für benachbarte Karten.


METAR-TAF: